Hulshout, Belgium
Current Conditions -  °F | °C
As of 2:25 AM on Saturday 20 Dec 2014 (Local Time) from EBDT Reporting Station
Clear Clear  
Wind Chill: 35°   Ceiling: Unl
Heat Index: 41°   Visibility: 6mi
Dew Point: 36°   Wind: 10mph
Humidity: 81%   Direction: 250°WSW
Pressure: 30.18"   Gusts: NA
Location:  51.07°N, 4.79°E
Report Text: EBDT 200125Z AUTO 25009KT 9999 NCD 05/02 Q1022 BLU
Loading
Personal Weather Stations






























Interactive Weather Map New forecast layout! Learn more

10-Day Weather Forecast

Advertisements
Track Severe Weather on mobile